sensor_id;sensor_type;location;lat;lon;timestamp;P1;durP1;ratioP1;P2;durP2;ratioP2
16254;SDS011;8235;52.198;9.904;2022-08-19T00:00:34;10.40;;;9.27;;
16254;SDS011;8235;52.198;9.904;2022-08-19T00:03:03;9.57;;;8.67;;
16254;SDS011;8235;52.198;9.904;2022-08-19T00:05:30;9.80;;;8.77;;
16254;SDS011;8235;52.198;9.904;2022-08-19T00:07:57;14.10;;;9.90;;
16254;SDS011;8235;52.198;9.904;2022-08-19T00:10:24;10.93;;;9.40;;
16254;SDS011;8235;52.198;9.904;2022-08-19T00:12:50;10.27;;;9.20;;
16254;SDS011;8235;52.198;9.904;2022-08-19T00:15:19;13.13;;;9.70;;
16254;SDS011;8235;52.198;9.904;2022-08-19T00:17:47;13.50;;;9.50;;
16254;SDS011;8235;52.198;9.904;2022-08-19T00:20:17;14.18;;;9.77;;
16254;SDS011;8235;52.198;9.904;2022-08-19T00:22:45;10.87;;;9.77;;
16254;SDS011;8235;52.198;9.904;2022-08-19T00:25:12;11.00;;;9.57;;
16254;SDS011;8235;52.198;9.904;2022-08-19T00:27:38;11.00;;;9.17;;
16254;SDS011;8235;52.198;9.904;2022-08-19T00:30:06;10.40;;;9.37;;
16254;SDS011;8235;52.198;9.904;2022-08-19T00:32:35;11.10;;;9.57;;
16254;SDS011;8235;52.198;9.904;2022-08-19T00:35:02;11.03;;;9.87;;
16254;SDS011;8235;52.198;9.904;2022-08-19T00:37:31;14.50;;;9.60;;
16254;SDS011;8235;52.198;9.904;2022-08-19T00:39:59;11.10;;;8.80;;
16254;SDS011;8235;52.198;9.904;2022-08-19T00:42:27;13.47;;;10.40;;
16254;SDS011;8235;52.198;9.904;2022-08-19T00:44:54;11.30;;;9.57;;
16254;SDS011;8235;52.198;9.904;2022-08-19T00:47:20;10.90;;;9.80;;
16254;SDS011;8235;52.198;9.904;2022-08-19T00:49:47;10.23;;;9.03;;
16254;SDS011;8235;52.198;9.904;2022-08-19T00:52:17;10.80;;;9.70;;
16254;SDS011;8235;52.198;9.904;2022-08-19T00:54:48;10.00;;;8.57;;
16254;SDS011;8235;52.198;9.904;2022-08-19T00:57:17;12.00;;;9.57;;
16254;SDS011;8235;52.198;9.904;2022-08-19T00:59:46;10.27;;;9.17;;
16254;SDS011;8235;52.198;9.904;2022-08-19T01:02:20;12.07;;;9.30;;
16254;SDS011;8235;52.198;9.904;2022-08-19T01:04:47;11.90;;;9.70;;
16254;SDS011;8235;52.198;9.904;2022-08-19T01:07:13;10.73;;;9.60;;
16254;SDS011;8235;52.198;9.904;2022-08-19T01:09:40;11.13;;;9.30;;
16254;SDS011;8235;52.198;9.904;2022-08-19T01:12:08;14.30;;;9.70;;
16254;SDS011;8235;52.198;9.904;2022-08-19T01:14:35;13.20;;;10.03;;
16254;SDS011;8235;52.198;9.904;2022-08-19T01:17:05;10.97;;;9.30;;
16254;SDS011;8235;52.198;9.904;2022-08-19T01:19:34;10.00;;;8.90;;
16254;SDS011;8235;52.198;9.904;2022-08-19T01:22:03;10.43;;;9.43;;
16254;SDS011;8235;52.198;9.904;2022-08-19T01:24:35;10.63;;;9.53;;
16254;SDS011;8235;52.198;9.904;2022-08-19T01:27:03;10.20;;;9.13;;
16254;SDS011;8235;52.198;9.904;2022-08-19T01:29:30;11.57;;;9.97;;
16254;SDS011;8235;52.198;9.904;2022-08-19T01:31:57;10.93;;;9.87;;
16254;SDS011;8235;52.198;9.904;2022-08-19T01:34:25;12.27;;;10.33;;
16254;SDS011;8235;52.198;9.904;2022-08-19T01:36:51;10.50;;;9.47;;
16254;SDS011;8235;52.198;9.904;2022-08-19T01:39:19;10.57;;;9.67;;
16254;SDS011;8235;52.198;9.904;2022-08-19T01:41:52;11.43;;;9.70;;
16254;SDS011;8235;52.198;9.904;2022-08-19T01:44:20;12.47;;;9.57;;
16254;SDS011;8235;52.198;9.904;2022-08-19T01:46:49;12.07;;;10.20;;
16254;SDS011;8235;52.198;9.904;2022-08-19T01:49:17;13.13;;;10.53;;
16254;SDS011;8235;52.198;9.904;2022-08-19T01:51:46;14.60;;;10.17;;
16254;SDS011;8235;52.198;9.904;2022-08-19T01:54:13;10.90;;;9.77;;
16254;SDS011;8235;52.198;9.904;2022-08-19T01:56:41;10.67;;;9.63;;
16254;SDS011;8235;52.198;9.904;2022-08-19T01:59:10;10.67;;;9.57;;
16254;SDS011;8235;52.198;9.904;2022-08-19T02:01:40;10.87;;;9.40;;
16254;SDS011;8235;52.198;9.904;2022-08-19T02:04:07;10.57;;;9.57;;
16254;SDS011;8235;52.198;9.904;2022-08-19T02:06:34;11.30;;;10.30;;
16254;SDS011;8235;52.198;9.904;2022-08-19T02:09:01;10.47;;;9.30;;
16254;SDS011;8235;52.198;9.904;2022-08-19T02:11:31;12.13;;;10.00;;
16254;SDS011;8235;52.198;9.904;2022-08-19T02:14:00;11.00;;;9.90;;
16254;SDS011;8235;52.198;9.904;2022-08-19T02:16:29;12.77;;;10.23;;
16254;SDS011;8235;52.198;9.904;2022-08-19T02:18:56;11.07;;;9.50;;
16254;SDS011;8235;52.198;9.904;2022-08-19T02:21:25;10.13;;;9.23;;
16254;SDS011;8235;52.198;9.904;2022-08-19T02:23:52;12.97;;;9.73;;
16254;SDS011;8235;52.198;9.904;2022-08-19T02:26:20;11.70;;;10.43;;
16254;SDS011;8235;52.198;9.904;2022-08-19T02:28:47;10.27;;;9.20;;
16254;SDS011;8235;52.198;9.904;2022-08-19T02:31:14;11.87;;;10.17;;
16254;SDS011;8235;52.198;9.904;2022-08-19T02:33:45;10.83;;;9.80;;
16254;SDS011;8235;52.198;9.904;2022-08-19T02:36:12;11.77;;;10.20;;
16254;SDS011;8235;52.198;9.904;2022-08-19T02:38:39;12.87;;;10.97;;
16254;SDS011;8235;52.198;9.904;2022-08-19T02:41:06;13.97;;;10.87;;
16254;SDS011;8235;52.198;9.904;2022-08-19T02:43:37;13.13;;;11.40;;
16254;SDS011;8235;52.198;9.904;2022-08-19T02:46:10;13.87;;;11.07;;
16254;SDS011;8235;52.198;9.904;2022-08-19T02:48:38;11.20;;;10.10;;
16254;SDS011;8235;52.198;9.904;2022-08-19T02:51:06;13.50;;;10.60;;
16254;SDS011;8235;52.198;9.904;2022-08-19T02:53:33;13.77;;;11.47;;
16254;SDS011;8235;52.198;9.904;2022-08-19T02:56:00;13.40;;;10.43;;
16254;SDS011;8235;52.198;9.904;2022-08-19T02:58:26;12.10;;;10.90;;
16254;SDS011;8235;52.198;9.904;2022-08-19T03:00:54;14.90;;;11.27;;
16254;SDS011;8235;52.198;9.904;2022-08-19T03:03:22;12.00;;;10.57;;
16254;SDS011;8235;52.198;9.904;2022-08-19T03:05:49;12.77;;;11.57;;
16254;SDS011;8235;52.198;9.904;2022-08-19T03:08:17;12.27;;;10.77;;
16254;SDS011;8235;52.198;9.904;2022-08-19T03:10:45;15.23;;;11.60;;
16254;SDS011;8235;52.198;9.904;2022-08-19T03:13:13;13.60;;;10.93;;
16254;SDS011;8235;52.198;9.904;2022-08-19T03:15:42;13.57;;;11.10;;
16254;SDS011;8235;52.198;9.904;2022-08-19T03:18:12;14.33;;;11.50;;
16254;SDS011;8235;52.198;9.904;2022-08-19T03:20:40;16.27;;;11.03;;
16254;SDS011;8235;52.198;9.904;2022-08-19T03:23:07;13.60;;;11.03;;
16254;SDS011;8235;52.198;9.904;2022-08-19T03:25:37;14.00;;;11.53;;
16254;SDS011;8235;52.198;9.904;2022-08-19T03:28:05;13.20;;;11.67;;
16254;SDS011;8235;52.198;9.904;2022-08-19T03:30:32;12.83;;;11.47;;
16254;SDS011;8235;52.198;9.904;2022-08-19T03:32:59;12.77;;;11.07;;
16254;SDS011;8235;52.198;9.904;2022-08-19T03:35:25;15.27;;;11.63;;
16254;SDS011;8235;52.198;9.904;2022-08-19T03:37:52;12.30;;;10.87;;
16254;SDS011;8235;52.198;9.904;2022-08-19T03:40:18;15.93;;;12.33;;
16254;SDS011;8235;52.198;9.904;2022-08-19T03:42:46;15.70;;;11.73;;
16254;SDS011;8235;52.198;9.904;2022-08-19T03:45:14;13.67;;;11.37;;
16254;SDS011;8235;52.198;9.904;2022-08-19T03:47:41;12.20;;;10.90;;
16254;SDS011;8235;52.198;9.904;2022-08-19T03:50:07;12.97;;;11.60;;
16254;SDS011;8235;52.198;9.904;2022-08-19T03:52:34;13.80;;;11.30;;
16254;SDS011;8235;52.198;9.904;2022-08-19T03:55:01;13.70;;;12.30;;
16254;SDS011;8235;52.198;9.904;2022-08-19T03:57:28;14.73;;;13.23;;
16254;SDS011;8235;52.198;9.904;2022-08-19T03:59:56;14.33;;;12.33;;
16254;SDS011;8235;52.198;9.904;2022-08-19T04:02:22;15.10;;;12.47;;
16254;SDS011;8235;52.198;9.904;2022-08-19T04:04:49;13.53;;;12.17;;
16254;SDS011;8235;52.198;9.904;2022-08-19T04:07:19;15.20;;;12.13;;
16254;SDS011;8235;52.198;9.904;2022-08-19T04:09:46;13.90;;;12.50;;
16254;SDS011;8235;52.198;9.904;2022-08-19T04:12:13;13.40;;;12.00;;
16254;SDS011;8235;52.198;9.904;2022-08-19T04:14:39;14.03;;;12.63;;
16254;SDS011;8235;52.198;9.904;2022-08-19T04:19:35;15.20;;;11.77;;
16254;SDS011;8235;52.198;9.904;2022-08-19T04:22:03;13.67;;;12.27;;
16254;SDS011;8235;52.198;9.904;2022-08-19T04:24:32;15.00;;;12.07;;
16254;SDS011;8235;52.198;9.904;2022-08-19T04:27:01;13.07;;;11.73;;
16254;SDS011;8235;52.198;9.904;2022-08-19T04:29:29;13.37;;;12.03;;
16254;SDS011;8235;52.198;9.904;2022-08-19T04:31:56;13.27;;;11.70;;
16254;SDS011;8235;52.198;9.904;2022-08-19T04:34:25;13.03;;;11.70;;
16254;SDS011;8235;52.198;9.904;2022-08-19T04:36:56;13.63;;;12.30;;
16254;SDS011;8235;52.198;9.904;2022-08-19T04:39:25;15.30;;;12.17;;
16254;SDS011;8235;52.198;9.904;2022-08-19T04:42:14;15.50;;;12.30;;
16254;SDS011;8235;52.198;9.904;2022-08-19T04:44:59;15.70;;;12.77;;
16254;SDS011;8235;52.198;9.904;2022-08-19T04:47:28;15.00;;;12.70;;
16254;SDS011;8235;52.198;9.904;2022-08-19T04:49:57;13.47;;;11.60;;
16254;SDS011;8235;52.198;9.904;2022-08-19T04:52:26;13.10;;;11.10;;
16254;SDS011;8235;52.198;9.904;2022-08-19T04:54:52;12.73;;;11.30;;
16254;SDS011;8235;52.198;9.904;2022-08-19T04:57:20;12.53;;;11.10;;
16254;SDS011;8235;52.198;9.904;2022-08-19T04:59:47;14.67;;;11.87;;
16254;SDS011;8235;52.198;9.904;2022-08-19T05:02:14;15.13;;;10.97;;
16254;SDS011;8235;52.198;9.904;2022-08-19T05:04:40;12.30;;;11.00;;
16254;SDS011;8235;52.198;9.904;2022-08-19T05:07:07;12.90;;;11.03;;
16254;SDS011;8235;52.198;9.904;2022-08-19T05:09:36;14.53;;;10.87;;
16254;SDS011;8235;52.198;9.904;2022-08-19T05:12:03;12.63;;;11.10;;
16254;SDS011;8235;52.198;9.904;2022-08-19T05:14:30;13.50;;;11.63;;
16254;SDS011;8235;52.198;9.904;2022-08-19T05:16:57;12.90;;;11.00;;
16254;SDS011;8235;52.198;9.904;2022-08-19T05:19:23;15.30;;;10.30;;
16254;SDS011;8235;52.198;9.904;2022-08-19T05:22:07;12.13;;;9.70;;
16254;SDS011;8235;52.198;9.904;2022-08-19T05:24:52;10.67;;;9.47;;
16254;SDS011;8235;52.198;9.904;2022-08-19T05:27:19;11.30;;;10.20;;
16254;SDS011;8235;52.198;9.904;2022-08-19T05:29:46;12.40;;;10.03;;
16254;SDS011;8235;52.198;9.904;2022-08-19T05:32:12;10.87;;;9.80;;
16254;SDS011;8235;52.198;9.904;2022-08-19T05:34:39;12.50;;;9.50;;
16254;SDS011;8235;52.198;9.904;2022-08-19T05:37:06;14.20;;;8.90;;
16254;SDS011;8235;52.198;9.904;2022-08-19T05:39:34;10.73;;;9.67;;
16254;SDS011;8235;52.198;9.904;2022-08-19T05:42:04;10.90;;;9.27;;
16254;SDS011;8235;52.198;9.904;2022-08-19T05:44:35;11.27;;;9.67;;
16254;SDS011;8235;52.198;9.904;2022-08-19T05:47:04;11.47;;;10.13;;
16254;SDS011;8235;52.198;9.904;2022-08-19T05:49:33;10.13;;;9.00;;
16254;SDS011;8235;52.198;9.904;2022-08-19T05:52:01;9.90;;;8.90;;
16254;SDS011;8235;52.198;9.904;2022-08-19T05:54:29;10.90;;;9.47;;
16254;SDS011;8235;52.198;9.904;2022-08-19T05:56:56;11.37;;;8.67;;
16254;SDS011;8235;52.198;9.904;2022-08-19T05:59:24;9.77;;;8.50;;
16254;SDS011;8235;52.198;9.904;2022-08-19T06:01:51;9.00;;;8.10;;
16254;SDS011;8235;52.198;9.904;2022-08-19T06:04:21;11.80;;;9.07;;
16254;SDS011;8235;52.198;9.904;2022-08-19T06:06:50;11.00;;;9.60;;
16254;SDS011;8235;52.198;9.904;2022-08-19T06:09:19;10.27;;;9.27;;
16254;SDS011;8235;52.198;9.904;2022-08-19T06:11:47;10.70;;;9.40;;
16254;SDS011;8235;52.198;9.904;2022-08-19T06:14:18;9.87;;;8.50;;
16254;SDS011;8235;52.198;9.904;2022-08-19T06:16:49;11.43;;;9.90;;
16254;SDS011;8235;52.198;9.904;2022-08-19T06:19:17;11.93;;;10.00;;
16254;SDS011;8235;52.198;9.904;2022-08-19T06:21:46;10.67;;;9.60;;
16254;SDS011;8235;52.198;9.904;2022-08-19T06:24:15;13.17;;;10.70;;
16254;SDS011;8235;52.198;9.904;2022-08-19T06:26:46;12.13;;;10.63;;
16254;SDS011;8235;52.198;9.904;2022-08-19T06:29:14;11.77;;;10.40;;
16254;SDS011;8235;52.198;9.904;2022-08-19T06:31:43;13.30;;;11.53;;
16254;SDS011;8235;52.198;9.904;2022-08-19T06:34:12;14.60;;;12.53;;
16254;SDS011;8235;52.198;9.904;2022-08-19T06:36:41;13.10;;;11.80;;
16254;SDS011;8235;52.198;9.904;2022-08-19T06:39:10;13.13;;;11.57;;
16254;SDS011;8235;52.198;9.904;2022-08-19T06:41:39;13.90;;;11.63;;
16254;SDS011;8235;52.198;9.904;2022-08-19T06:44:07;15.10;;;11.80;;
16254;SDS011;8235;52.198;9.904;2022-08-19T06:46:34;14.30;;;12.67;;
16254;SDS011;8235;52.198;9.904;2022-08-19T06:49:01;15.73;;;12.90;;
16254;SDS011;8235;52.198;9.904;2022-08-19T06:51:30;14.07;;;12.10;;
16254;SDS011;8235;52.198;9.904;2022-08-19T06:53:59;17.17;;;13.60;;
16254;SDS011;8235;52.198;9.904;2022-08-19T06:56:28;16.03;;;13.80;;
16254;SDS011;8235;52.198;9.904;2022-08-19T06:58:58;18.70;;;14.53;;
16254;SDS011;8235;52.198;9.904;2022-08-19T07:01:25;15.77;;;13.73;;
16254;SDS011;8235;52.198;9.904;2022-08-19T07:03:52;18.80;;;15.00;;
16254;SDS011;8235;52.198;9.904;2022-08-19T07:06:19;18.23;;;15.37;;
16254;SDS011;8235;52.198;9.904;2022-08-19T07:08:47;21.27;;;15.83;;
16254;SDS011;8235;52.198;9.904;2022-08-19T07:11:14;18.67;;;15.33;;
16254;SDS011;8235;52.198;9.904;2022-08-19T07:13:43;20.40;;;15.70;;
16254;SDS011;8235;52.198;9.904;2022-08-19T07:16:11;20.20;;;15.77;;
16254;SDS011;8235;52.198;9.904;2022-08-19T07:18:40;20.17;;;15.70;;
16254;SDS011;8235;52.198;9.904;2022-08-19T07:21:07;20.27;;;15.73;;
16254;SDS011;8235;52.198;9.904;2022-08-19T07:23:36;21.03;;;16.67;;
16254;SDS011;8235;52.198;9.904;2022-08-19T07:26:05;21.20;;;15.57;;
16254;SDS011;8235;52.198;9.904;2022-08-19T07:28:32;19.27;;;15.80;;
16254;SDS011;8235;52.198;9.904;2022-08-19T07:30:59;19.47;;;14.93;;
16254;SDS011;8235;52.198;9.904;2022-08-19T07:33:28;19.40;;;15.03;;
16254;SDS011;8235;52.198;9.904;2022-08-19T07:35:57;23.30;;;15.60;;
16254;SDS011;8235;52.198;9.904;2022-08-19T07:38:24;21.27;;;16.00;;
16254;SDS011;8235;52.198;9.904;2022-08-19T07:40:50;17.40;;;14.87;;
16254;SDS011;8235;52.198;9.904;2022-08-19T07:43:19;20.27;;;15.33;;
16254;SDS011;8235;52.198;9.904;2022-08-19T07:45:50;17.17;;;14.10;;
16254;SDS011;8235;52.198;9.904;2022-08-19T07:48:16;20.07;;;14.90;;
16254;SDS011;8235;52.198;9.904;2022-08-19T07:50:43;18.80;;;16.10;;
16254;SDS011;8235;52.198;9.904;2022-08-19T07:53:10;19.67;;;16.10;;
16254;SDS011;8235;52.198;9.904;2022-08-19T07:55:38;19.13;;;16.00;;
16254;SDS011;8235;52.198;9.904;2022-08-19T07:58:04;18.47;;;15.47;;
16254;SDS011;8235;52.198;9.904;2022-08-19T08:00:32;20.13;;;15.50;;
16254;SDS011;8235;52.198;9.904;2022-08-19T08:03:00;14.97;;;12.63;;
16254;SDS011;8235;52.198;9.904;2022-08-19T08:05:26;14.20;;;12.80;;
16254;SDS011;8235;52.198;9.904;2022-08-19T08:08:10;14.63;;;13.07;;
16254;SDS011;8235;52.198;9.904;2022-08-19T08:10:54;17.10;;;15.07;;
16254;SDS011;8235;52.198;9.904;2022-08-19T08:13:21;17.50;;;14.17;;
16254;SDS011;8235;52.198;9.904;2022-08-19T08:15:49;13.17;;;11.23;;
16254;SDS011;8235;52.198;9.904;2022-08-19T08:18:15;13.40;;;11.43;;
16254;SDS011;8235;52.198;9.904;2022-08-19T08:20:42;16.70;;;12.47;;
16254;SDS011;8235;52.198;9.904;2022-08-19T08:23:08;11.53;;;10.33;;
16254;SDS011;8235;52.198;9.904;2022-08-19T08:25:51;13.90;;;11.87;;
16254;SDS011;8235;52.198;9.904;2022-08-19T08:28:19;16.67;;;13.57;;
16254;SDS011;8235;52.198;9.904;2022-08-19T08:30:47;17.90;;;13.43;;
16254;SDS011;8235;52.198;9.904;2022-08-19T08:33:17;12.50;;;11.20;;
16254;SDS011;8235;52.198;9.904;2022-08-19T08:35:44;13.65;;;10.93;;
16254;SDS011;8235;52.198;9.904;2022-08-19T08:38:11;13.60;;;11.85;;
16254;SDS011;8235;52.198;9.904;2022-08-19T08:40:42;11.88;;;10.63;;
16254;SDS011;8235;52.198;9.904;2022-08-19T08:43:14;14.00;;;10.98;;
16254;SDS011;8235;52.198;9.904;2022-08-19T08:45:52;12.82;;;11.40;;
16254;SDS011;8235;52.198;9.904;2022-08-19T08:48:27;13.75;;;11.52;;
16254;SDS011;8235;52.198;9.904;2022-08-19T08:51:02;12.43;;;10.80;;
16254;SDS011;8235;52.198;9.904;2022-08-19T08:53:32;10.23;;;9.30;;
16254;SDS011;8235;52.198;9.904;2022-08-19T08:56:02;11.60;;;9.95;;
16254;SDS011;8235;52.198;9.904;2022-08-19T08:58:31;10.82;;;9.75;;
16254;SDS011;8235;52.198;9.904;2022-08-19T09:01:09;9.05;;;8.15;;
16254;SDS011;8235;52.198;9.904;2022-08-19T09:03:37;9.07;;;8.13;;
16254;SDS011;8235;52.198;9.904;2022-08-19T09:06:11;9.85;;;8.82;;
16254;SDS011;8235;52.198;9.904;2022-08-19T09:08:44;8.48;;;7.53;;
16254;SDS011;8235;52.198;9.904;2022-08-19T09:11:15;10.02;;;8.27;;
16254;SDS011;8235;52.198;9.904;2022-08-19T09:14:02;9.95;;;7.60;;
16254;SDS011;8235;52.198;9.904;2022-08-19T09:16:38;9.30;;;7.75;;
16254;SDS011;8235;52.198;9.904;2022-08-19T09:19:06;8.77;;;6.90;;
16254;SDS011;8235;52.198;9.904;2022-08-19T09:21:33;8.30;;;6.95;;
16254;SDS011;8235;52.198;9.904;2022-08-19T09:24:00;9.90;;;8.18;;
16254;SDS011;8235;52.198;9.904;2022-08-19T09:26:27;8.80;;;7.63;;
16254;SDS011;8235;52.198;9.904;2022-08-19T09:28:54;8.13;;;6.93;;
16254;SDS011;8235;52.198;9.904;2022-08-19T09:31:24;6.78;;;5.90;;
16254;SDS011;8235;52.198;9.904;2022-08-19T09:33:53;6.57;;;5.97;;
16254;SDS011;8235;52.198;9.904;2022-08-19T09:36:22;6.75;;;6.15;;
16254;SDS011;8235;52.198;9.904;2022-08-19T09:38:51;8.00;;;6.85;;
16254;SDS011;8235;52.198;9.904;2022-08-19T09:41:18;7.50;;;6.63;;
16254;SDS011;8235;52.198;9.904;2022-08-19T09:43:47;7.22;;;6.53;;
16254;SDS011;8235;52.198;9.904;2022-08-19T09:46:17;6.47;;;5.88;;
16254;SDS011;8235;52.198;9.904;2022-08-19T09:48:46;7.97;;;6.40;;
16254;SDS011;8235;52.198;9.904;2022-08-19T09:51:16;5.95;;;5.35;;
16254;SDS011;8235;52.198;9.904;2022-08-19T09:53:44;6.15;;;5.55;;
16254;SDS011;8235;52.198;9.904;2022-08-19T09:56:12;5.03;;;4.53;;
16254;SDS011;8235;52.198;9.904;2022-08-19T09:58:39;6.47;;;5.78;;
16254;SDS011;8235;52.198;9.904;2022-08-19T10:01:07;5.32;;;4.82;;
16254;SDS011;8235;52.198;9.904;2022-08-19T10:03:34;5.50;;;4.95;;
16254;SDS011;8235;52.198;9.904;2022-08-19T10:06:03;7.30;;;6.05;;
16254;SDS011;8235;52.198;9.904;2022-08-19T10:08:32;8.80;;;4.22;;
16254;SDS011;8235;52.198;9.904;2022-08-19T10:11:01;5.57;;;4.93;;
16254;SDS011;8235;52.198;9.904;2022-08-19T10:13:29;6.00;;;4.70;;
16254;SDS011;8235;52.198;9.904;2022-08-19T10:16:01;4.80;;;3.95;;
16254;SDS011;8235;52.198;9.904;2022-08-19T10:18:30;7.05;;;4.88;;
16254;SDS011;8235;52.198;9.904;2022-08-19T10:21:02;5.68;;;5.10;;
16254;SDS011;8235;52.198;9.904;2022-08-19T10:23:34;5.30;;;4.80;;
16254;SDS011;8235;52.198;9.904;2022-08-19T10:26:03;4.45;;;4.05;;
16254;SDS011;8235;52.198;9.904;2022-08-19T10:28:31;3.85;;;3.45;;
16254;SDS011;8235;52.198;9.904;2022-08-19T10:30:57;4.72;;;4.03;;
16254;SDS011;8235;52.198;9.904;2022-08-19T10:33:24;3.95;;;3.55;;
16254;SDS011;8235;52.198;9.904;2022-08-19T10:35:58;4.50;;;3.22;;
16254;SDS011;8235;52.198;9.904;2022-08-19T10:38:25;3.90;;;3.10;;
16254;SDS011;8235;52.198;9.904;2022-08-19T10:40:53;4.95;;;3.33;;
16254;SDS011;8235;52.198;9.904;2022-08-19T10:43:19;3.60;;;3.05;;
16254;SDS011;8235;52.198;9.904;2022-08-19T10:45:48;3.53;;;3.17;;
16254;SDS011;8235;52.198;9.904;2022-08-19T10:48:17;3.95;;;3.28;;
16254;SDS011;8235;52.198;9.904;2022-08-19T10:50:44;5.45;;;3.53;;
16254;SDS011;8235;52.198;9.904;2022-08-19T10:53:28;4.63;;;2.85;;
16254;SDS011;8235;52.198;9.904;2022-08-19T10:55:56;4.07;;;2.50;;
16254;SDS011;8235;52.198;9.904;2022-08-19T10:58:40;2.13;;;1.83;;
16254;SDS011;8235;52.198;9.904;2022-08-19T11:01:06;2.03;;;1.77;;
16254;SDS011;8235;52.198;9.904;2022-08-19T11:03:33;2.60;;;2.13;;
16254;SDS011;8235;52.198;9.904;2022-08-19T11:05:59;3.65;;;2.10;;
16254;SDS011;8235;52.198;9.904;2022-08-19T11:08:27;4.70;;;1.50;;
16254;SDS011;8235;52.198;9.904;2022-08-19T11:10:58;2.67;;;1.50;;
16254;SDS011;8235;52.198;9.904;2022-08-19T11:13:26;2.72;;;1.80;;
16254;SDS011;8235;52.198;9.904;2022-08-19T11:15:57;3.67;;;2.05;;
16254;SDS011;8235;52.198;9.904;2022-08-19T11:18:24;1.58;;;1.48;;
16254;SDS011;8235;52.198;9.904;2022-08-19T11:20:51;2.63;;;1.48;;
16254;SDS011;8235;52.198;9.904;2022-08-19T11:23:18;1.98;;;1.50;;
16254;SDS011;8235;52.198;9.904;2022-08-19T11:25:44;4.05;;;1.38;;
16254;SDS011;8235;52.198;9.904;2022-08-19T11:28:12;2.08;;;1.40;;
16254;SDS011;8235;52.198;9.904;2022-08-19T11:30:39;2.28;;;1.45;;
16254;SDS011;8235;52.198;9.904;2022-08-19T11:33:05;1.33;;;1.17;;
16254;SDS011;8235;52.198;9.904;2022-08-19T11:35:32;1.55;;;1.42;;
16254;SDS011;8235;52.198;9.904;2022-08-19T11:37:58;1.98;;;1.52;;
16254;SDS011;8235;52.198;9.904;2022-08-19T11:40:26;2.08;;;1.40;;
16254;SDS011;8235;52.198;9.904;2022-08-19T11:42:53;2.13;;;1.20;;
16254;SDS011;8235;52.198;9.904;2022-08-19T11:45:24;2.13;;;1.67;;
16254;SDS011;8235;52.198;9.904;2022-08-19T11:47:50;1.52;;;1.42;;
16254;SDS011;8235;52.198;9.904;2022-08-19T11:50:17;1.42;;;1.20;;
16254;SDS011;8235;52.198;9.904;2022-08-19T11:52:44;2.88;;;1.50;;
16254;SDS011;8235;52.198;9.904;2022-08-19T11:55:12;1.60;;;1.45;;
16254;SDS011;8235;52.198;9.904;2022-08-19T11:57:39;2.08;;;1.83;;
16254;SDS011;8235;52.198;9.904;2022-08-19T12:00:08;2.38;;;1.65;;
16254;SDS011;8235;52.198;9.904;2022-08-19T12:02:38;1.70;;;1.50;;
16254;SDS011;8235;52.198;9.904;2022-08-19T12:05:05;2.58;;;1.83;;
16254;SDS011;8235;52.198;9.904;2022-08-19T12:07:32;1.63;;;1.52;;
16254;SDS011;8235;52.198;9.904;2022-08-19T12:09:59;2.30;;;1.60;;
16254;SDS011;8235;52.198;9.904;2022-08-19T12:12:25;1.85;;;1.55;;
16254;SDS011;8235;52.198;9.904;2022-08-19T12:14:52;1.77;;;1.60;;
16254;SDS011;8235;52.198;9.904;2022-08-19T12:17:21;2.20;;;1.80;;
16254;SDS011;8235;52.198;9.904;2022-08-19T12:19:49;2.28;;;1.52;;
16254;SDS011;8235;52.198;9.904;2022-08-19T12:22:16;2.47;;;1.80;;
16254;SDS011;8235;52.198;9.904;2022-08-19T12:24:43;2.63;;;1.50;;
16254;SDS011;8235;52.198;9.904;2022-08-19T12:27:09;1.58;;;1.45;;
16254;SDS011;8235;52.198;9.904;2022-08-19T12:29:36;4.07;;;1.50;;
16254;SDS011;8235;52.198;9.904;2022-08-19T12:32:02;1.92;;;1.20;;
16254;SDS011;8235;52.198;9.904;2022-08-19T12:34:29;2.42;;;1.58;;
16254;SDS011;8235;52.198;9.904;2022-08-19T12:36:59;1.73;;;1.63;;
16254;SDS011;8235;52.198;9.904;2022-08-19T12:39:29;2.30;;;1.65;;
16254;SDS011;8235;52.198;9.904;2022-08-19T12:41:59;3.20;;;1.35;;
16254;SDS011;8235;52.198;9.904;2022-08-19T12:44:26;1.98;;;1.30;;
16254;SDS011;8235;52.198;9.904;2022-08-19T12:46:52;3.08;;;1.27;;
16254;SDS011;8235;52.198;9.904;2022-08-19T12:49:19;1.77;;;1.20;;
16254;SDS011;8235;52.198;9.904;2022-08-19T12:51:45;1.60;;;1.50;;
16254;SDS011;8235;52.198;9.904;2022-08-19T12:54:13;2.15;;;1.50;;
16254;SDS011;8235;52.198;9.904;2022-08-19T12:56:40;1.80;;;1.70;;
16254;SDS011;8235;52.198;9.904;2022-08-19T12:59:07;1.77;;;1.50;;
16254;SDS011;8235;52.198;9.904;2022-08-19T13:01:33;2.15;;;1.45;;
16254;SDS011;8235;52.198;9.904;2022-08-19T13:04:00;2.85;;;1.10;;
16254;SDS011;8235;52.198;9.904;2022-08-19T13:06:27;1.30;;;1.20;;
16254;SDS011;8235;52.198;9.904;2022-08-19T13:08:53;1.60;;;1.30;;
16254;SDS011;8235;52.198;9.904;2022-08-19T13:11:21;1.85;;;1.25;;
16254;SDS011;8235;52.198;9.904;2022-08-19T13:13:50;2.75;;;1.30;;
16254;SDS011;8235;52.198;9.904;2022-08-19T13:16:18;2.60;;;1.27;;
16254;SDS011;8235;52.198;9.904;2022-08-19T13:18:47;1.42;;;1.20;;
16254;SDS011;8235;52.198;9.904;2022-08-19T13:21:17;2.50;;;1.50;;
16254;SDS011;8235;52.198;9.904;2022-08-19T13:23:45;1.95;;;1.58;;
16254;SDS011;8235;52.198;9.904;2022-08-19T13:26:12;1.60;;;1.50;;
16254;SDS011;8235;52.198;9.904;2022-08-19T13:28:41;1.30;;;1.20;;
16254;SDS011;8235;52.198;9.904;2022-08-19T13:31:23;2.85;;;1.40;;
16254;SDS011;8235;52.198;9.904;2022-08-19T13:34:12;2.13;;;1.30;;
16254;SDS011;8235;52.198;9.904;2022-08-19T13:36:40;1.48;;;1.38;;
16254;SDS011;8235;52.198;9.904;2022-08-19T13:39:07;1.15;;;1.05;;
16254;SDS011;8235;52.198;9.904;2022-08-19T13:41:33;1.45;;;1.20;;
16254;SDS011;8235;52.198;9.904;2022-08-19T13:44:02;1.42;;;1.00;;
16254;SDS011;8235;52.198;9.904;2022-08-19T13:46:29;1.73;;;1.35;;
16254;SDS011;8235;52.198;9.904;2022-08-19T13:48:55;1.83;;;1.10;;
16254;SDS011;8235;52.198;9.904;2022-08-19T13:51:22;2.33;;;1.15;;
16254;SDS011;8235;52.198;9.904;2022-08-19T13:53:49;1.63;;;1.00;;
16254;SDS011;8235;52.198;9.904;2022-08-19T13:56:17;1.73;;;1.10;;
16254;SDS011;8235;52.198;9.904;2022-08-19T13:58:45;1.85;;;1.20;;
16254;SDS011;8235;52.198;9.904;2022-08-19T14:01:17;1.60;;;1.50;;
16254;SDS011;8235;52.198;9.904;2022-08-19T14:03:45;1.38;;;1.13;;
16254;SDS011;8235;52.198;9.904;2022-08-19T14:06:12;1.85;;;1.30;;
16254;SDS011;8235;52.198;9.904;2022-08-19T14:08:38;1.20;;;1.10;;
16254;SDS011;8235;52.198;9.904;2022-08-19T14:11:06;1.20;;;1.10;;
16254;SDS011;8235;52.198;9.904;2022-08-19T14:13:33;1.58;;;1.30;;
16254;SDS011;8235;52.198;9.904;2022-08-19T14:15:59;1.50;;;1.30;;
16254;SDS011;8235;52.198;9.904;2022-08-19T14:18:28;1.00;;;1.00;;
16254;SDS011;8235;52.198;9.904;2022-08-19T14:20:54;1.50;;;1.10;;
16254;SDS011;8235;52.198;9.904;2022-08-19T14:23:21;2.35;;;1.23;;
16254;SDS011;8235;52.198;9.904;2022-08-19T14:25:48;2.22;;;1.10;;
16254;SDS011;8235;52.198;9.904;2022-08-19T14:28:14;2.47;;;1.30;;
16254;SDS011;8235;52.198;9.904;2022-08-19T14:30:41;2.20;;;1.10;;
16254;SDS011;8235;52.198;9.904;2022-08-19T14:33:09;1.30;;;1.20;;
16254;SDS011;8235;52.198;9.904;2022-08-19T14:35:37;1.13;;;1.10;;
16254;SDS011;8235;52.198;9.904;2022-08-19T14:38:14;1.92;;;1.30;;
16254;SDS011;8235;52.198;9.904;2022-08-19T14:40:41;1.17;;;1.08;;
16254;SDS011;8235;52.198;9.904;2022-08-19T14:43:08;2.03;;;1.38;;
16254;SDS011;8235;52.198;9.904;2022-08-19T14:45:36;2.45;;;1.23;;
16254;SDS011;8235;52.198;9.904;2022-08-19T14:48:04;3.83;;;1.25;;
16254;SDS011;8235;52.198;9.904;2022-08-19T14:50:31;1.58;;;1.02;;
16254;SDS011;8235;52.198;9.904;2022-08-19T14:53:00;3.10;;;1.50;;
16254;SDS011;8235;52.198;9.904;2022-08-19T14:55:28;3.33;;;1.25;;
16254;SDS011;8235;52.198;9.904;2022-08-19T14:57:56;1.10;;;1.10;;